Time;durP1;ratioP1;P1;durP2;ratioP2;P2;SDS_P1;SDS_P2;PMS_P1;PMS_P2;Temp;Humidity;BMP_temperature;BMP_pressure;BME280_temperature;BME280_humidity;BME280_pressure;Samples;Min_cycle;Max_cycle;Signal;HPM_P1;HPM_P2
2022/07/08 00:01:00;;;;;;;3.08;2.55;;;;;;;;;;5094684;28;20035;-73
2022/07/08 00:03:26;;;;;;;4.63;3.10;;;;;;;;;;5094192;28;20030;-73
2022/07/08 00:05:53;;;;;;;4.70;2.50;;;;;;;;;;5093448;28;20140;-73
2022/07/08 00:08:20;;;;;;;3.10;2.58;;;;;;;;;;5095395;27;20026;-73
2022/07/08 00:10:46;;;;;;;3.08;2.38;;;;;;;;;;5090513;28;20030;-73
2022/07/08 00:13:12;;;;;;;4.80;2.78;;;;;;;;;;5103860;28;20024;-73
2022/07/08 00:15:38;;;;;;;3.58;2.35;;;;;;;;;;5091493;28;20035;-73
2022/07/08 00:18:04;;;;;;;3.72;2.40;;;;;;;;;;5089642;28;20082;-73
2022/07/08 00:20:30;;;;;;;3.95;2.20;;;;;;;;;;5095558;28;20397;-74
2022/07/08 00:22:57;;;;;;;4.00;2.20;;;;;;;;;;5095869;28;20023;-73
2022/07/08 00:25:23;;;;;;;4.43;2.67;;;;;;;;;;5098741;28;20016;-74
2022/07/08 00:27:49;;;;;;;3.95;2.30;;;;;;;;;;5098527;28;20108;-74
2022/07/08 00:30:15;;;;;;;3.70;2.38;;;;;;;;;;5095724;28;20031;-73
2022/07/08 00:32:41;;;;;;;3.60;2.25;;;;;;;;;;5098846;28;20023;-72
2022/07/08 00:35:08;;;;;;;3.92;2.45;;;;;;;;;;5093453;28;20046;-75
2022/07/08 00:37:34;;;;;;;2.70;2.20;;;;;;;;;;5099160;28;20085;-74
2022/07/08 00:40:00;;;;;;;3.90;2.70;;;;;;;;;;5095647;28;20085;-73
2022/07/08 00:42:26;;;;;;;4.07;2.55;;;;;;;;;;5091602;28;20068;-73
2022/07/08 00:44:52;;;;;;;3.92;2.58;;;;;;;;;;5099305;28;20408;-73
2022/07/08 00:47:18;;;;;;;3.88;2.45;;;;;;;;;;5099152;28;20039;-73
2022/07/08 00:49:44;;;;;;;4.85;2.97;;;;;;;;;;5086597;28;20099;-73
2022/07/08 00:52:10;;;;;;;3.85;2.42;;;;;;;;;;5088245;28;20426;-72
2022/07/08 00:54:37;;;;;;;4.32;2.85;;;;;;;;;;5094377;28;20036;-72
2022/07/08 00:57:03;;;;;;;3.10;2.42;;;;;;;;;;5092702;28;20070;-73
2022/07/08 00:59:30;;;;;;;4.35;2.90;;;;;;;;;;5088094;28;20039;-73
2022/07/08 01:01:57;;;;;;;4.40;2.85;;;;;;;;;;5086757;28;20024;-72
2022/07/08 01:04:23;;;;;;;4.18;2.83;;;;;;;;;;5091913;28;20067;-73
2022/07/08 01:06:49;;;;;;;5.32;2.78;;;;;;;;;;5087223;28;20581;-72
2022/07/08 01:09:15;;;;;;;3.00;2.58;;;;;;;;;;5095270;28;20024;-73
2022/07/08 01:11:43;;;;;;;3.67;2.67;;;;;;;;;;5094812;28;20066;-73
2022/07/08 01:14:09;;;;;;;5.50;2.50;;;;;;;;;;5092480;28;20094;-73
2022/07/08 01:16:36;;;;;;;4.20;2.70;;;;;;;;;;5091683;28;20386;-73
2022/07/08 01:19:02;;;;;;;3.20;2.72;;;;;;;;;;5095320;28;20096;-74
2022/07/08 01:21:28;;;;;;;3.35;2.60;;;;;;;;;;5095081;28;20121;-73
2022/07/08 01:23:54;;;;;;;4.43;3.08;;;;;;;;;;5094311;28;20045;-73
2022/07/08 01:26:21;;;;;;;4.10;2.72;;;;;;;;;;5097424;28;20072;-73
2022/07/08 01:28:47;;;;;;;4.72;2.47;;;;;;;;;;5087714;28;20028;-72
2022/07/08 01:31:13;;;;;;;3.38;2.70;;;;;;;;;;5098026;28;20073;-72
2022/07/08 01:33:39;;;;;;;3.53;2.60;;;;;;;;;;5091036;28;20397;-72
2022/07/08 01:36:06;;;;;;;6.40;2.95;;;;;;;;;;5087029;28;20094;-73
2022/07/08 01:38:32;;;;;;;3.90;2.80;;;;;;;;;;5088168;28;20031;-73
2022/07/08 01:40:58;;;;;;;3.00;2.50;;;;;;;;;;5095768;28;20611;-71
2022/07/08 01:43:25;;;;;;;5.15;2.60;;;;;;;;;;5097419;28;20031;-73
2022/07/08 01:45:51;;;;;;;3.63;2.60;;;;;;;;;;5094613;28;20008;-72
2022/07/08 01:48:17;;;;;;;3.35;2.70;;;;;;;;;;5090973;28;20045;-73
2022/07/08 01:50:43;;;;;;;4.72;2.95;;;;;;;;;;5096999;28;20062;-73
2022/07/08 01:53:11;;;;;;;3.40;2.60;;;;;;;;;;5090967;28;20032;-73
2022/07/08 01:55:37;;;;;;;3.33;2.55;;;;;;;;;;5086942;28;20024;-73
2022/07/08 01:58:03;;;;;;;4.05;2.65;;;;;;;;;;5097881;28;20032;-73
2022/07/08 02:00:30;;;;;;;3.80;3.10;;;;;;;;;;5089470;28;20616;-73
2022/07/08 02:02:56;;;;;;;3.88;2.80;;;;;;;;;;5091561;28;20091;-73
2022/07/08 02:05:22;;;;;;;4.05;2.80;;;;;;;;;;5098817;28;20027;-73
2022/07/08 02:07:48;;;;;;;3.67;3.05;;;;;;;;;;5095353;28;20028;-73
2022/07/08 02:10:14;;;;;;;5.55;3.20;;;;;;;;;;5095589;28;20327;-72
2022/07/08 02:12:40;;;;;;;4.60;3.55;;;;;;;;;;5101356;28;20081;-72
2022/07/08 02:15:07;;;;;;;4.68;3.10;;;;;;;;;;5089900;28;20471;-72
2022/07/08 02:17:38;;;;;;;4.25;3.00;;;;;;;;;;5101646;28;20019;-73
2022/07/08 02:20:09;;;;;;;4.45;3.25;;;;;;;;;;5092445;28;20137;-72
2022/07/08 02:22:35;;;;;;;5.60;3.40;;;;;;;;;;5096828;28;20100;-73
2022/07/08 02:25:01;;;;;;;4.30;3.13;;;;;;;;;;5096082;28;20514;-72
2022/07/08 02:27:27;;;;;;;3.63;3.00;;;;;;;;;;5093619;28;20024;-73
2022/07/08 02:29:53;;;;;;;6.00;3.08;;;;;;;;;;5099382;28;20442;-72
2022/07/08 02:32:19;;;;;;;5.78;3.70;;;;;;;;;;5096387;28;20036;-72
2022/07/08 02:34:45;;;;;;;7.82;4.72;;;;;;;;;;5093813;28;20077;-73
2022/07/08 02:37:13;;;;;;;5.85;4.32;;;;;;;;;;5089625;28;20040;-73
2022/07/08 02:39:39;;;;;;;5.07;3.92;;;;;;;;;;5092439;28;20372;-73
2022/07/08 02:42:05;;;;;;;3.70;2.80;;;;;;;;;;5092472;28;20051;-73
2022/07/08 02:44:31;;;;;;;5.47;3.83;;;;;;;;;;5092108;28;20107;-73
2022/07/08 02:46:58;;;;;;;5.57;3.63;;;;;;;;;;5097160;28;20028;-72
2022/07/08 02:49:24;;;;;;;5.22;3.78;;;;;;;;;;5097585;28;20054;-73
2022/07/08 02:51:50;;;;;;;4.72;3.80;;;;;;;;;;5097430;28;20028;-73
2022/07/08 02:54:16;;;;;;;6.10;3.53;;;;;;;;;;5099356;28;20028;-72
2022/07/08 02:56:42;;;;;;;6.55;3.78;;;;;;;;;;5100690;28;20032;-73
2022/07/08 02:59:08;;;;;;;6.38;3.90;;;;;;;;;;5106514;28;20032;-73
2022/07/08 03:01:34;;;;;;;4.35;3.40;;;;;;;;;;5095706;28;20040;-73
2022/07/08 03:04:00;;;;;;;5.55;3.90;;;;;;;;;;5099338;28;20024;-72
2022/07/08 03:06:26;;;;;;;5.05;4.10;;;;;;;;;;5096638;28;20017;-73
2022/07/08 03:08:52;;;;;;;5.40;4.00;;;;;;;;;;5095575;28;20089;-72
2022/07/08 03:11:19;;;;;;;6.85;4.00;;;;;;;;;;5096908;28;20035;-72
2022/07/08 03:13:45;;;;;;;8.75;4.72;;;;;;;;;;5105712;28;20521;-73
2022/07/08 03:16:11;;;;;;;4.80;3.70;;;;;;;;;;5097706;28;20765;-73
2022/07/08 03:18:37;;;;;;;4.78;3.85;;;;;;;;;;5098016;28;20473;-72
2022/07/08 03:21:04;;;;;;;5.38;3.65;;;;;;;;;;5092648;28;20031;-73
2022/07/08 03:23:31;;;;;;;6.53;4.47;;;;;;;;;;5096532;28;20031;-71
2022/07/08 03:25:57;;;;;;;7.13;4.60;;;;;;;;;;5097560;28;20016;-74
2022/07/08 03:28:23;;;;;;;5.75;3.45;;;;;;;;;;5098780;28;20028;-72
2022/07/08 03:30:49;;;;;;;6.70;4.53;;;;;;;;;;5088448;28;20112;-73
2022/07/08 03:33:15;;;;;;;4.50;3.50;;;;;;;;;;5099000;28;20038;-73
2022/07/08 03:35:41;;;;;;;4.22;3.80;;;;;;;;;;5095866;28;20036;-73
2022/07/08 03:38:07;;;;;;;6.20;3.65;;;;;;;;;;5094740;28;20031;-73
2022/07/08 03:43:18;;;;;;;5.03;3.60;;;;;;;;;;5094958;28;20112;-72
2022/07/08 03:45:44;;;;;;;4.25;3.60;;;;;;;;;;5095531;28;20107;-73
2022/07/08 03:48:10;;;;;;;4.45;4.03;;;;;;;;;;5093846;28;20247;-73
2022/07/08 03:50:36;;;;;;;6.32;3.35;;;;;;;;;;5099021;28;20390;-74
2022/07/08 03:53:02;;;;;;;4.97;3.85;;;;;;;;;;5091582;28;20461;-73
2022/07/08 03:55:28;;;;;;;7.60;4.30;;;;;;;;;;5095152;28;20060;-73
2022/07/08 03:57:54;;;;;;;6.05;4.03;;;;;;;;;;5094121;28;20024;-72
2022/07/08 04:00:20;;;;;;;5.60;3.63;;;;;;;;;;5096718;28;20563;-73
2022/07/08 04:02:47;;;;;;;6.85;4.05;;;;;;;;;;5090241;28;20020;-72
2022/07/08 04:05:13;;;;;;;5.13;3.65;;;;;;;;;;5097459;28;20446;-72
2022/07/08 04:07:39;;;;;;;4.18;3.65;;;;;;;;;;5096815;28;20099;-72
2022/07/08 04:10:06;;;;;;;7.22;3.90;;;;;;;;;;5097630;28;20058;-72
2022/07/08 04:12:32;;;;;;;4.95;4.00;;;;;;;;;;5096780;28;20024;-73
2022/07/08 04:14:58;;;;;;;6.53;4.60;;;;;;;;;;5096463;28;20481;-72
2022/07/08 04:17:24;;;;;;;6.93;4.00;;;;;;;;;;5100294;28;20035;-72
2022/07/08 04:19:50;;;;;;;7.95;4.72;;;;;;;;;;5090617;28;20032;-73
2022/07/08 04:22:16;;;;;;;8.98;4.45;;;;;;;;;;5095001;28;20028;-73
2022/07/08 04:24:42;;;;;;;5.95;4.13;;;;;;;;;;5088270;28;20058;-73
2022/07/08 04:27:08;;;;;;;6.75;4.03;;;;;;;;;;5092294;28;20095;-73
2022/07/08 04:29:34;;;;;;;7.68;5.03;;;;;;;;;;5097870;28;20028;-73
2022/07/08 04:32:01;;;;;;;6.35;3.90;;;;;;;;;;5092610;28;20473;-73
2022/07/08 04:34:27;;;;;;;7.78;4.25;;;;;;;;;;5089467;28;20027;-73
2022/07/08 04:36:53;;;;;;;7.43;4.22;;;;;;;;;;5093918;28;20016;-72
2022/07/08 04:39:19;;;;;;;6.55;4.47;;;;;;;;;;5094545;28;20024;-74
2022/07/08 04:41:45;;;;;;;6.78;3.95;;;;;;;;;;5086753;28;20409;-74
2022/07/08 04:44:11;;;;;;;5.50;3.70;;;;;;;;;;5091530;28;20024;-73
2022/07/08 04:46:37;;;;;;;4.40;3.45;;;;;;;;;;5096160;28;20064;-73
2022/07/08 04:49:04;;;;;;;5.35;2.95;;;;;;;;;;5094532;28;20477;-72
2022/07/08 04:51:30;;;;;;;4.68;2.83;;;;;;;;;;5097131;28;20051;-74
2022/07/08 04:53:56;;;;;;;5.70;3.03;;;;;;;;;;5089705;28;20470;-73
2022/07/08 04:56:22;;;;;;;4.65;2.90;;;;;;;;;;5102544;28;20070;-74
2022/07/08 04:58:48;;;;;;;4.88;2.90;;;;;;;;;;5104496;28;20441;-73
2022/07/08 05:01:17;;;;;;;5.13;2.70;;;;;;;;;;5095647;28;20031;-73
2022/07/08 05:03:43;;;;;;;3.83;2.72;;;;;;;;;;5097546;28;20024;-73
2022/07/08 05:06:09;;;;;;;3.28;2.78;;;;;;;;;;5092111;28;20107;-73
2022/07/08 05:08:36;;;;;;;4.35;2.70;;;;;;;;;;5093964;28;20020;-73
2022/07/08 05:11:02;;;;;;;6.55;3.08;;;;;;;;;;5090635;28;20073;-72
2022/07/08 05:13:28;;;;;;;5.03;2.70;;;;;;;;;;5095534;28;20106;-72
2022/07/08 05:15:54;;;;;;;4.22;2.60;;;;;;;;;;5091888;28;20024;-74
2022/07/08 05:18:20;;;;;;;3.55;2.58;;;;;;;;;;5092401;28;20499;-72
2022/07/08 05:20:46;;;;;;;4.55;3.28;;;;;;;;;;5088758;28;20386;-72
2022/07/08 05:23:12;;;;;;;4.03;2.90;;;;;;;;;;5094280;28;20378;-74
2022/07/08 05:25:38;;;;;;;4.78;2.95;;;;;;;;;;5093335;28;20020;-73
2022/07/08 05:28:04;;;;;;;3.17;2.78;;;;;;;;;;5092604;28;20031;-73
2022/07/08 05:30:31;;;;;;;3.30;2.55;;;;;;;;;;5089811;28;20481;-73
2022/07/08 05:32:57;;;;;;;3.90;2.60;;;;;;;;;;5093370;28;20338;-72
2022/07/08 05:35:23;;;;;;;4.90;3.03;;;;;;;;;;5091240;28;20041;-73
2022/07/08 05:37:49;;;;;;;5.50;3.22;;;;;;;;;;5091648;28;20055;-74
2022/07/08 05:40:16;;;;;;;4.50;3.10;;;;;;;;;;5095413;28;20377;-73
2022/07/08 05:42:42;;;;;;;4.25;2.70;;;;;;;;;;5086709;28;20626;-73
2022/07/08 05:45:08;;;;;;;4.93;2.78;;;;;;;;;;5099702;28;20034;-73
2022/07/08 05:47:35;;;;;;;3.95;2.85;;;;;;;;;;5093401;28;20482;-73
2022/07/08 05:50:01;;;;;;;3.10;2.55;;;;;;;;;;5097392;28;20045;-73
2022/07/08 05:52:27;;;;;;;5.68;2.58;;;;;;;;;;5090419;28;20036;-73
2022/07/08 05:54:53;;;;;;;5.35;2.80;;;;;;;;;;5091507;28;20026;-72
2022/07/08 05:57:20;;;;;;;3.90;2.55;;;;;;;;;;5104064;28;20032;-73
2022/07/08 05:59:46;;;;;;;4.38;2.67;;;;;;;;;;5100553;28;20016;-73
2022/07/08 06:02:12;;;;;;;3.50;2.92;;;;;;;;;;5098613;28;20431;-73
2022/07/08 06:04:38;;;;;;;3.72;2.65;;;;;;;;;;5091549;28;20114;-73
2022/07/08 06:07:04;;;;;;;4.05;3.00;;;;;;;;;;5098725;28;20411;-73
2022/07/08 06:09:31;;;;;;;4.97;2.88;;;;;;;;;;5098519;28;20538;-70
2022/07/08 06:11:57;;;;;;;3.97;2.67;;;;;;;;;;5100882;28;20394;-73
2022/07/08 06:14:23;;;;;;;3.60;2.55;;;;;;;;;;5098827;28;20032;-73
2022/07/08 06:16:49;;;;;;;3.38;2.40;;;;;;;;;;5093245;28;20639;-72
2022/07/08 06:19:16;;;;;;;3.92;2.40;;;;;;;;;;5100095;28;20484;-73
2022/07/08 06:21:42;;;;;;;3.42;2.28;;;;;;;;;;5090689;28;20593;-73
2022/07/08 06:24:08;;;;;;;2.50;2.08;;;;;;;;;;5098925;28;20020;-73
2022/07/08 06:26:35;;;;;;;3.85;2.33;;;;;;;;;;5096341;28;20089;-73
2022/07/08 06:29:01;;;;;;;3.33;2.58;;;;;;;;;;5093084;28;20026;-74
2022/07/08 06:31:27;;;;;;;4.55;2.10;;;;;;;;;;5098010;28;20516;-73
2022/07/08 06:33:56;;;;;;;2.67;2.25;;;;;;;;;;5095827;28;20058;-73
2022/07/08 06:36:25;;;;;;;3.55;2.20;;;;;;;;;;5092826;28;20102;-74
2022/07/08 06:38:52;;;;;;;2.78;1.90;;;;;;;;;;5103838;28;20049;-73
2022/07/08 06:41:18;;;;;;;2.50;2.10;;;;;;;;;;5096969;28;20040;-73
2022/07/08 06:43:45;;;;;;;4.20;2.20;;;;;;;;;;5100303;28;20590;-73
2022/07/08 06:46:11;;;;;;;2.95;2.30;;;;;;;;;;5090424;28;20501;-74
2022/07/08 06:48:37;;;;;;;2.90;2.08;;;;;;;;;;5092831;28;20024;-74
2022/07/08 06:51:03;;;;;;;2.20;2.00;;;;;;;;;;5093309;28;20423;-74
2022/07/08 06:54:34;;;;;;;3.42;1.98;;;;;;;;;;5094668;28;20036;-73
2022/07/08 06:56:16;;;;;;;2.55;2.05;;;;;;;;;;5094398;28;20355;-73
2022/07/08 06:58:42;;;;;;;2.35;1.98;;;;;;;;;;5098801;28;20042;-73
2022/07/08 07:01:08;;;;;;;3.08;2.20;;;;;;;;;;5100196;28;20035;-71
2022/07/08 07:03:34;;;;;;;2.40;2.08;;;;;;;;;;5099133;28;20424;-73
2022/07/08 07:06:00;;;;;;;3.47;2.10;;;;;;;;;;5095539;28;20030;-73
2022/07/08 07:08:26;;;;;;;3.22;2.13;;;;;;;;;;5096990;28;20118;-73
2022/07/08 07:10:52;;;;;;;4.35;2.30;;;;;;;;;;5091608;28;20070;-73
2022/07/08 07:13:18;;;;;;;2.97;2.30;;;;;;;;;;5092727;28;20555;-72
2022/07/08 07:15:44;;;;;;;2.60;2.15;;;;;;;;;;5090619;28;20054;-72
2022/07/08 07:18:10;;;;;;;2.53;2.03;;;;;;;;;;5101160;28;20032;-73
2022/07/08 07:20:36;;;;;;;2.60;2.03;;;;;;;;;;5094999;28;20395;-73
2022/07/08 07:23:03;;;;;;;3.78;2.05;;;;;;;;;;5093265;28;20431;-73
2022/07/08 07:25:29;;;;;;;3.30;2.20;;;;;;;;;;5106294;28;20563;-73
2022/07/08 07:27:55;;;;;;;2.97;2.10;;;;;;;;;;5088545;28;20073;-73
2022/07/08 07:30:24;;;;;;;2.30;2.00;;;;;;;;;;5090378;28;20383;-72
2022/07/08 07:32:50;;;;;;;2.85;2.45;;;;;;;;;;5090419;28;20081;-73
2022/07/08 07:35:16;;;;;;;2.85;1.90;;;;;;;;;;5095601;28;20476;-73
2022/07/08 07:37:42;;;;;;;2.00;1.80;;;;;;;;;;5098063;28;20073;-73
2022/07/08 07:40:09;;;;;;;5.13;2.80;;;;;;;;;;5099021;28;20073;-73
2022/07/08 07:42:35;;;;;;;2.83;2.30;;;;;;;;;;5091467;28;20112;-73
2022/07/08 07:45:03;;;;;;;2.60;1.90;;;;;;;;;;5102804;28;20028;-73
2022/07/08 07:47:30;;;;;;;2.55;1.80;;;;;;;;;;5097249;28;20020;-73
2022/07/08 07:49:56;;;;;;;2.30;1.95;;;;;;;;;;5095097;28;20215;-74
2022/07/08 07:52:22;;;;;;;1.83;1.70;;;;;;;;;;5090982;28;20080;-74
2022/07/08 07:54:48;;;;;;;2.92;2.30;;;;;;;;;;5091442;28;20032;-74
2022/07/08 07:57:14;;;;;;;3.60;2.20;;;;;;;;;;5097909;28;20407;-74
2022/07/08 07:59:45;;;;;;;3.17;1.95;;;;;;;;;;5098300;28;20027;-73
2022/07/08 08:02:11;;;;;;;2.30;2.10;;;;;;;;;;5100193;28;20016;-73
2022/07/08 08:04:37;;;;;;;2.58;1.95;;;;;;;;;;5092836;28;20027;-70
2022/07/08 08:07:03;;;;;;;2.67;2.20;;;;;;;;;;5095727;28;20487;-70
2022/07/08 08:09:29;;;;;;;3.00;2.15;;;;;;;;;;5098078;28;20250;-71
2022/07/08 08:11:55;;;;;;;3.30;2.72;;;;;;;;;;5094968;28;21307;-71
2022/07/08 08:14:21;;;;;;;4.10;2.65;;;;;;;;;;5096168;28;20137;-71
2022/07/08 08:16:47;;;;;;;5.38;3.63;;;;;;;;;;5091666;28;20412;-71
2022/07/08 08:19:13;;;;;;;6.15;4.18;;;;;;;;;;5094605;28;20089;-71
2022/07/08 08:21:39;;;;;;;6.68;4.75;;;;;;;;;;5089614;28;20022;-72
2022/07/08 08:24:06;;;;;;;6.22;4.43;;;;;;;;;;5096021;28;20485;-72
2022/07/08 08:26:32;;;;;;;5.45;3.97;;;;;;;;;;5090758;28;20095;-72
2022/07/08 08:28:58;;;;;;;6.82;4.30;;;;;;;;;;5093614;28;20028;-72
2022/07/08 08:31:25;;;;;;;7.35;4.15;;;;;;;;;;5096047;27;20076;-71
2022/07/08 08:33:51;;;;;;;6.18;3.90;;;;;;;;;;5090598;28;20043;-71
2022/07/08 08:36:17;;;;;;;6.43;4.47;;;;;;;;;;5097077;28;20311;-71
2022/07/08 08:38:43;;;;;;;11.68;6.60;;;;;;;;;;5097513;28;20030;-71
2022/07/08 08:41:10;;;;;;;8.73;7.22;;;;;;;;;;5091894;28;20028;-72
2022/07/08 08:43:36;;;;;;;8.05;6.00;;;;;;;;;;5090025;28;20099;-71
2022/07/08 08:46:02;;;;;;;7.68;5.53;;;;;;;;;;5093671;28;20052;-72
2022/07/08 08:48:31;;;;;;;6.05;4.80;;;;;;;;;;5098180;28;20028;-71
2022/07/08 08:50:58;;;;;;;5.55;4.57;;;;;;;;;;5092288;28;20028;-72
2022/07/08 08:53:33;;;;;;;6.55;5.03;;;;;;;;;;5088119;28;20016;-73
2022/07/08 08:56:00;;;;;;;5.93;4.93;;;;;;;;;;5098053;28;20109;-72
2022/07/08 08:58:26;;;;;;;5.53;4.32;;;;;;;;;;5095481;28;20111;-71
2022/07/08 09:00:52;;;;;;;4.57;3.85;;;;;;;;;;5087527;28;20029;-73
2022/07/08 09:03:18;;;;;;;3.83;3.42;;;;;;;;;;5091417;28;20020;-72
2022/07/08 09:05:45;;;;;;;3.72;3.10;;;;;;;;;;5102604;28;20024;-71
2022/07/08 09:08:11;;;;;;;5.10;2.70;;;;;;;;;;5096783;28;20016;-71
2022/07/08 09:10:38;;;;;;;5.65;2.92;;;;;;;;;;5097654;28;20450;-73
2022/07/08 09:13:07;;;;;;;3.58;2.70;;;;;;;;;;5093888;28;20042;-72
2022/07/08 09:15:34;;;;;;;3.22;2.63;;;;;;;;;;5093008;28;20571;-71
2022/07/08 09:18:01;;;;;;;4.93;2.58;;;;;;;;;;5095022;28;20036;-72
2022/07/08 09:20:29;;;;;;;3.97;2.53;;;;;;;;;;5102165;28;20118;-73
2022/07/08 09:22:58;;;;;;;3.90;2.90;;;;;;;;;;5100939;28;20545;-73
2022/07/08 09:25:24;;;;;;;5.20;2.80;;;;;;;;;;5107811;28;20312;-72
2022/07/08 09:27:51;;;;;;;4.03;3.00;;;;;;;;;;5092521;28;20016;-72
2022/07/08 09:30:17;;;;;;;4.30;3.88;;;;;;;;;;5092973;28;20526;-71
2022/07/08 09:32:56;;;;;;;5.03;4.63;;;;;;;;;;5092947;28;20035;-72
2022/07/08 09:35:23;;;;;;;5.18;4.50;;;;;;;;;;5107332;28;20031;-72
2022/07/08 09:37:52;;;;;;;3.58;3.20;;;;;;;;;;5096221;28;20019;-72
2022/07/08 09:40:18;;;;;;;4.60;2.88;;;;;;;;;;5103298;28;20092;-72
2022/07/08 09:42:44;;;;;;;3.03;2.72;;;;;;;;;;5096908;28;20104;-72
2022/07/08 09:45:10;;;;;;;2.60;2.40;;;;;;;;;;5095871;28;20024;-71
2022/07/08 09:47:36;;;;;;;3.00;2.55;;;;;;;;;;5097036;28;20020;-72
2022/07/08 09:50:02;;;;;;;3.15;2.42;;;;;;;;;;5096994;28;20031;-73
2022/07/08 09:52:28;;;;;;;3.03;2.40;;;;;;;;;;5102715;28;20035;-72
2022/07/08 09:55:02;;;;;;;4.55;2.90;;;;;;;;;;5096353;28;20066;-72
2022/07/08 09:57:29;;;;;;;3.92;2.53;;;;;;;;;;5094986;28;20090;-72
2022/07/08 09:59:56;;;;;;;5.45;4.15;;;;;;;;;;5100366;28;20019;-73
2022/07/08 10:02:22;;;;;;;6.07;4.47;;;;;;;;;;5094757;28;20069;-71
2022/07/08 10:04:50;;;;;;;4.63;3.75;;;;;;;;;;5094344;28;20482;-71
2022/07/08 10:07:16;;;;;;;4.10;3.70;;;;;;;;;;5098749;28;20028;-73
2022/07/08 10:09:43;;;;;;;5.75;3.78;;;;;;;;;;5100549;28;20386;-73
2022/07/08 10:12:11;;;;;;;3.35;2.70;;;;;;;;;;5094084;28;20103;-72
2022/07/08 10:14:37;;;;;;;2.70;2.50;;;;;;;;;;5099630;28;20059;-73
2022/07/08 10:17:07;;;;;;;3.75;2.80;;;;;;;;;;5089576;28;20032;-72
2022/07/08 10:19:35;;;;;;;3.58;2.50;;;;;;;;;;5099104;28;20031;-73
2022/07/08 10:22:03;;;;;;;3.35;2.83;;;;;;;;;;5094920;28;20034;-73
2022/07/08 10:24:30;;;;;;;3.00;2.70;;;;;;;;;;5100168;28;20031;-73
2022/07/08 10:27:01;;;;;;;4.28;3.88;;;;;;;;;;5103318;28;20165;-74
2022/07/08 10:29:31;;;;;;;5.13;4.25;;;;;;;;;;5094339;28;20031;-72
2022/07/08 10:31:58;;;;;;;4.82;4.32;;;;;;;;;;5095855;28;20567;-73
2022/07/08 10:34:36;;;;;;;5.15;4.65;;;;;;;;;;5091392;28;20086;-73
2022/07/08 10:37:03;;;;;;;5.25;4.47;;;;;;;;;;5096671;28;20433;-73
2022/07/08 10:39:42;;;;;;;7.05;4.40;;;;;;;;;;5101758;28;20035;-72
2022/07/08 10:42:09;;;;;;;5.15;3.85;;;;;;;;;;5096674;28;20377;-72
2022/07/08 10:44:44;;;;;;;3.40;3.10;;;;;;;;;;5093523;28;20031;-73
2022/07/08 10:47:36;;;;;;;3.13;2.78;;;;;;;;;;5095204;28;20028;-72
2022/07/08 10:50:04;;;;;;;3.22;2.50;;;;;;;;;;5097074;28;20262;-72
2022/07/08 10:52:38;;;;;;;3.55;2.65;;;;;;;;;;5097547;28;20026;-73
2022/07/08 10:55:09;;;;;;;2.80;2.50;;;;;;;;;;5103260;28;20156;-72
2022/07/08 10:57:35;;;;;;;3.10;2.80;;;;;;;;;;5096651;28;20068;-74
2022/07/08 11:00:08;;;;;;;2.65;2.33;;;;;;;;;;5094873;28;20052;-73
2022/07/08 11:02:39;;;;;;;3.95;2.75;;;;;;;;;;5088131;28;20024;-73
2022/07/08 11:05:05;;;;;;;3.00;2.50;;;;;;;;;;5103898;28;20024;-73
2022/07/08 11:07:31;;;;;;;3.78;2.58;;;;;;;;;;5098195;28;20016;-71
2022/07/08 11:10:04;;;;;;;2.90;2.20;;;;;;;;;;5099280;28;20063;-72
2022/07/08 11:12:38;;;;;;;3.33;2.28;;;;;;;;;;5103869;28;20513;-72
2022/07/08 11:15:11;;;;;;;3.58;2.80;;;;;;;;;;5090906;28;20474;-73
2022/07/08 11:17:37;;;;;;;3.03;2.45;;;;;;;;;;5093685;28;20036;-73
2022/07/08 11:20:13;;;;;;;3.63;2.47;;;;;;;;;;5102623;28;20052;-73
2022/07/08 11:22:40;;;;;;;2.70;2.50;;;;;;;;;;5100393;28;20024;-74
2022/07/08 11:25:08;;;;;;;2.40;2.20;;;;;;;;;;5092514;28;20027;-74
2022/07/08 11:27:34;;;;;;;3.58;2.30;;;;;;;;;;5099862;28;20023;-74
2022/07/08 11:30:01;;;;;;;7.20;3.53;;;;;;;;;;5098415;28;20028;-73
2022/07/08 11:32:30;;;;;;;3.95;2.38;;;;;;;;;;5094003;28;20036;-73
2022/07/08 11:34:56;;;;;;;3.03;2.20;;;;;;;;;;5094876;28;20020;-74
2022/07/08 11:37:23;;;;;;;2.70;2.42;;;;;;;;;;5100193;28;20091;-73
2022/07/08 11:39:49;;;;;;;2.63;2.40;;;;;;;;;;5090578;28;20166;-74
2022/07/08 11:42:16;;;;;;;2.85;2.53;;;;;;;;;;5095359;28;20554;-73
2022/07/08 11:44:45;;;;;;;3.42;2.45;;;;;;;;;;5091773;28;20096;-73
2022/07/08 11:47:17;;;;;;;2.80;2.22;;;;;;;;;;5097740;28;20402;-72
2022/07/08 11:49:43;;;;;;;3.08;2.40;;;;;;;;;;5096105;28;20251;-72
2022/07/08 11:52:10;;;;;;;5.80;2.67;;;;;;;;;;5100079;28;20100;-72
2022/07/08 11:54:36;;;;;;;3.80;2.78;;;;;;;;;;5091683;28;20410;-72
2022/07/08 11:57:03;;;;;;;4.85;2.42;;;;;;;;;;5095534;28;20103;-71
2022/07/08 11:59:33;;;;;;;3.90;2.60;;;;;;;;;;5093671;28;20381;-72
2022/07/08 12:02:01;;;;;;;4.93;2.25;;;;;;;;;;5089145;28;20102;-73
2022/07/08 12:04:27;;;;;;;3.47;2.42;;;;;;;;;;5099104;28;20016;-73
2022/07/08 12:06:55;;;;;;;4.22;2.50;;;;;;;;;;5088853;28;20108;-73
2022/07/08 12:09:22;;;;;;;4.45;2.80;;;;;;;;;;5094102;28;20382;-73
2022/07/08 12:11:49;;;;;;;2.42;2.22;;;;;;;;;;5093120;28;20218;-73
2022/07/08 12:14:15;;;;;;;3.00;2.70;;;;;;;;;;5097727;28;20098;-73
2022/07/08 12:16:43;;;;;;;3.55;2.97;;;;;;;;;;5097359;28;20016;-73
2022/07/08 12:19:28;;;;;;;3.47;2.50;;;;;;;;;;5100746;28;20418;-73
2022/07/08 12:21:55;;;;;;;3.17;2.55;;;;;;;;;;5099966;28;20039;-73
2022/07/08 12:24:25;;;;;;;5.40;2.20;;;;;;;;;;5099355;28;20027;-73
2022/07/08 12:27:01;;;;;;;2.60;2.40;;;;;;;;;;5095408;28;20062;-72
2022/07/08 12:29:28;;;;;;;5.00;2.58;;;;;;;;;;5099768;28;20073;-73
2022/07/08 12:31:54;;;;;;;5.20;2.40;;;;;;;;;;5086516;28;20035;-73
2022/07/08 12:34:22;;;;;;;2.38;2.17;;;;;;;;;;5101407;28;20534;-72
2022/07/08 12:36:48;;;;;;;3.30;2.33;;;;;;;;;;5095896;28;20032;-73
2022/07/08 12:39:16;;;;;;;4.43;2.35;;;;;;;;;;5092906;28;20104;-73
2022/07/08 12:41:42;;;;;;;2.40;2.20;;;;;;;;;;5091529;28;20047;-73
2022/07/08 12:44:26;;;;;;;2.45;2.13;;;;;;;;;;5087958;28;20032;-73
2022/07/08 12:46:53;;;;;;;2.40;2.00;;;;;;;;;;5097117;28;20023;-73
2022/07/08 12:49:22;;;;;;;3.35;2.03;;;;;;;;;;5094486;28;20020;-74
2022/07/08 12:51:48;;;;;;;2.80;2.20;;;;;;;;;;5095797;28;20111;-72
2022/07/08 12:54:15;;;;;;;2.55;2.35;;;;;;;;;;5088621;28;20032;-73
2022/07/08 12:56:41;;;;;;;2.60;2.10;;;;;;;;;;5090272;28;20016;-73
2022/07/08 12:59:07;;;;;;;3.17;2.10;;;;;;;;;;5089293;28;20028;-72
2022/07/08 13:01:35;;;;;;;4.03;2.10;;;;;;;;;;5092276;28;20143;-73
2022/07/08 13:04:01;;;;;;;2.60;2.40;;;;;;;;;;5098384;28;20119;-73
2022/07/08 13:06:27;;;;;;;3.50;2.50;;;;;;;;;;5095464;28;20038;-72
2022/07/08 13:08:53;;;;;;;2.75;2.20;;;;;;;;;;5091934;28;20106;-73
2022/07/08 13:11:20;;;;;;;2.60;2.40;;;;;;;;;;5096378;28;21062;-72
2022/07/08 13:13:46;;;;;;;2.28;2.08;;;;;;;;;;5099301;28;20029;-74
2022/07/08 13:16:12;;;;;;;3.47;1.80;;;;;;;;;;5098906;28;20417;-73
2022/07/08 13:18:38;;;;;;;4.70;2.30;;;;;;;;;;5091511;28;20416;-73
2022/07/08 13:21:04;;;;;;;3.45;2.40;;;;;;;;;;5090801;28;20036;-72
2022/07/08 13:23:30;;;;;;;3.72;2.20;;;;;;;;;;5097797;28;20035;-73
2022/07/08 13:25:56;;;;;;;2.50;2.10;;;;;;;;;;5091265;28;20046;-74
2022/07/08 13:28:22;;;;;;;2.40;2.10;;;;;;;;;;5092614;28;20092;-74
2022/07/08 13:30:48;;;;;;;2.97;2.20;;;;;;;;;;5094862;28;20430;-74
2022/07/08 13:33:14;;;;;;;3.58;2.30;;;;;;;;;;5098997;28;20093;-74
2022/07/08 13:35:40;;;;;;;3.10;2.20;;;;;;;;;;5093221;28;20062;-74
2022/07/08 13:38:06;;;;;;;3.35;2.60;;;;;;;;;;5092588;28;20711;-74
2022/07/08 13:40:32;;;;;;;3.20;2.10;;;;;;;;;;5091849;28;20028;-73
2022/07/08 13:42:58;;;;;;;2.20;2.00;;;;;;;;;;5097386;28;20123;-74
2022/07/08 13:45:25;;;;;;;2.88;2.00;;;;;;;;;;5093815;28;20016;-74
2022/07/08 13:47:51;;;;;;;3.15;2.00;;;;;;;;;;5090886;28;20090;-75
2022/07/08 13:50:17;;;;;;;2.50;2.00;;;;;;;;;;5095376;28;20513;-74
2022/07/08 13:52:43;;;;;;;3.33;2.05;;;;;;;;;;5090092;28;20469;-75
2022/07/08 13:55:09;;;;;;;4.47;2.08;;;;;;;;;;5095863;28;20360;-73
2022/07/08 13:57:36;;;;;;;3.50;2.00;;;;;;;;;;5101413;28;20020;-73
2022/07/08 14:00:02;;;;;;;5.93;2.10;;;;;;;;;;5089753;28;20024;-73
2022/07/08 14:02:28;;;;;;;2.40;2.20;;;;;;;;;;5097987;28;20509;-73
2022/07/08 14:04:54;;;;;;;3.38;2.00;;;;;;;;;;5088804;28;20489;-73
2022/07/08 14:07:20;;;;;;;4.22;2.10;;;;;;;;;;5096391;28;20015;-72
2022/07/08 14:09:47;;;;;;;3.83;2.10;;;;;;;;;;5096247;28;20027;-73
2022/07/08 14:12:14;;;;;;;3.40;2.10;;;;;;;;;;5095089;28;20453;-74
2022/07/08 14:14:40;;;;;;;2.40;2.20;;;;;;;;;;5100945;28;20454;-73
2022/07/08 14:17:07;;;;;;;2.40;2.10;;;;;;;;;;5090138;28;20116;-75
2022/07/08 14:19:33;;;;;;;2.50;2.30;;;;;;;;;;5095187;28;20020;-73
2022/07/08 14:21:59;;;;;;;3.95;2.20;;;;;;;;;;5095805;28;20098;-74
2022/07/08 14:24:25;;;;;;;2.30;2.10;;;;;;;;;;5100485;28;20031;-73
2022/07/08 14:26:51;;;;;;;2.58;2.10;;;;;;;;;;5100040;28;20015;-73
2022/07/08 14:29:17;;;;;;;2.20;2.00;;;;;;;;;;5092253;28;20117;-73
2022/07/08 14:31:43;;;;;;;3.55;1.95;;;;;;;;;;5097998;28;20459;-73
2022/07/08 14:34:10;;;;;;;2.97;2.20;;;;;;;;;;5091215;28;20040;-73
2022/07/08 14:36:36;;;;;;;3.00;2.00;;;;;;;;;;5096926;28;20016;-73
2022/07/08 14:39:03;;;;;;;2.78;2.10;;;;;;;;;;5096822;28;20444;-72
2022/07/08 14:41:29;;;;;;;2.70;2.05;;;;;;;;;;5095360;28;21556;-73
2022/07/08 14:43:55;;;;;;;2.25;2.05;;;;;;;;;;5095200;28;20027;-73